sensor_id;sensor_type;location;lat;lon;timestamp;temperature;humidity
55642;DHT22;41509;53.108;6.100;2023-05-29T00:00:54;10.60;99.90
55642;DHT22;41509;53.108;6.100;2023-05-29T00:03:19;10.60;99.90
55642;DHT22;41509;53.108;6.100;2023-05-29T00:05:45;10.50;99.90
55642;DHT22;41509;53.108;6.100;2023-05-29T00:08:13;10.50;99.90
55642;DHT22;41509;53.108;6.100;2023-05-29T00:10:39;10.50;99.90
55642;DHT22;41509;53.108;6.100;2023-05-29T00:13:05;10.40;99.90
55642;DHT22;41509;53.108;6.100;2023-05-29T00:15:32;10.50;99.90
55642;DHT22;41509;53.108;6.100;2023-05-29T00:17:57;10.40;99.90
55642;DHT22;41509;53.108;6.100;2023-05-29T00:20:23;10.40;99.90
55642;DHT22;41509;53.108;6.100;2023-05-29T00:22:48;10.40;99.90
55642;DHT22;41509;53.108;6.100;2023-05-29T00:25:15;10.30;99.90
55642;DHT22;41509;53.108;6.100;2023-05-29T00:27:41;10.40;99.90
55642;DHT22;41509;53.108;6.100;2023-05-29T00:30:07;10.40;99.90
55642;DHT22;41509;53.108;6.100;2023-05-29T00:32:33;10.40;99.90
55642;DHT22;41509;53.108;6.100;2023-05-29T00:34:58;10.30;99.90
55642;DHT22;41509;53.108;6.100;2023-05-29T00:37:24;10.30;99.90
55642;DHT22;41509;53.108;6.100;2023-05-29T00:39:51;10.30;99.90
55642;DHT22;41509;53.108;6.100;2023-05-29T00:42:16;10.30;99.90
55642;DHT22;41509;53.108;6.100;2023-05-29T00:44:42;10.30;99.90
55642;DHT22;41509;53.108;6.100;2023-05-29T00:47:08;10.20;99.90
55642;DHT22;41509;53.108;6.100;2023-05-29T00:49:36;10.30;99.90
55642;DHT22;41509;53.108;6.100;2023-05-29T00:52:02;10.20;99.90
55642;DHT22;41509;53.108;6.100;2023-05-29T00:54:30;10.20;99.90
55642;DHT22;41509;53.108;6.100;2023-05-29T00:56:59;10.20;99.90
55642;DHT22;41509;53.108;6.100;2023-05-29T00:59:30;10.20;99.90
55642;DHT22;41509;53.108;6.100;2023-05-29T01:01:57;10.20;99.90
55642;DHT22;41509;53.108;6.100;2023-05-29T01:04:27;10.10;99.90
55642;DHT22;41509;53.108;6.100;2023-05-29T01:06:53;10.20;99.90
55642;DHT22;41509;53.108;6.100;2023-05-29T01:09:19;10.10;99.90
55642;DHT22;41509;53.108;6.100;2023-05-29T01:14:33;10.20;99.90
55642;DHT22;41509;53.108;6.100;2023-05-29T01:17:32;10.10;99.90
55642;DHT22;41509;53.108;6.100;2023-05-29T01:28:33;10.10;99.90
55642;DHT22;41509;53.108;6.100;2023-05-29T01:31:03;10.10;99.90
55642;DHT22;41509;53.108;6.100;2023-05-29T01:33:29;10.10;99.90
55642;DHT22;41509;53.108;6.100;2023-05-29T01:35:55;10.00;99.90
55642;DHT22;41509;53.108;6.100;2023-05-29T01:38:20;10.10;99.90
55642;DHT22;41509;53.108;6.100;2023-05-29T01:40:47;10.10;99.90
55642;DHT22;41509;53.108;6.100;2023-05-29T01:43:13;10.10;99.90
55642;DHT22;41509;53.108;6.100;2023-05-29T01:45:39;10.00;99.90
55642;DHT22;41509;53.108;6.100;2023-05-29T01:48:06;10.00;99.90
55642;DHT22;41509;53.108;6.100;2023-05-29T01:50:31;10.00;99.90
55642;DHT22;41509;53.108;6.100;2023-05-29T01:52:57;10.00;99.90
55642;DHT22;41509;53.108;6.100;2023-05-29T01:55:23;10.00;99.90
55642;DHT22;41509;53.108;6.100;2023-05-29T01:57:49;10.00;99.90
55642;DHT22;41509;53.108;6.100;2023-05-29T02:00:18;9.90;99.90
55642;DHT22;41509;53.108;6.100;2023-05-29T02:02:44;9.90;99.90
55642;DHT22;41509;53.108;6.100;2023-05-29T02:05:10;9.90;99.90
55642;DHT22;41509;53.108;6.100;2023-05-29T02:07:35;9.90;99.90
55642;DHT22;41509;53.108;6.100;2023-05-29T02:10:04;9.80;99.90
55642;DHT22;41509;53.108;6.100;2023-05-29T02:12:33;9.90;99.90
55642;DHT22;41509;53.108;6.100;2023-05-29T02:14:59;9.90;99.90
55642;DHT22;41509;53.108;6.100;2023-05-29T02:17:24;9.70;99.90
55642;DHT22;41509;53.108;6.100;2023-05-29T02:19:50;9.80;99.90
55642;DHT22;41509;53.108;6.100;2023-05-29T02:22:18;9.90;99.90
55642;DHT22;41509;53.108;6.100;2023-05-29T02:24:46;9.80;99.90
55642;DHT22;41509;53.108;6.100;2023-05-29T02:27:14;9.80;99.90
55642;DHT22;41509;53.108;6.100;2023-05-29T02:29:40;9.70;99.90
55642;DHT22;41509;53.108;6.100;2023-05-29T02:32:06;9.80;99.90
55642;DHT22;41509;53.108;6.100;2023-05-29T02:34:31;9.70;99.90
55642;DHT22;41509;53.108;6.100;2023-05-29T02:36:57;9.70;99.90
55642;DHT22;41509;53.108;6.100;2023-05-29T02:39:23;9.70;99.90
55642;DHT22;41509;53.108;6.100;2023-05-29T02:41:48;9.60;99.90
55642;DHT22;41509;53.108;6.100;2023-05-29T02:44:14;9.70;99.90
55642;DHT22;41509;53.108;6.100;2023-05-29T02:46:40;9.70;99.90
55642;DHT22;41509;53.108;6.100;2023-05-29T02:49:06;9.70;99.90
55642;DHT22;41509;53.108;6.100;2023-05-29T02:51:32;9.80;99.90
55642;DHT22;41509;53.108;6.100;2023-05-29T02:54:00;9.70;99.90
55642;DHT22;41509;53.108;6.100;2023-05-29T02:56:26;9.80;99.90
55642;DHT22;41509;53.108;6.100;2023-05-29T02:58:52;9.80;99.90
55642;DHT22;41509;53.108;6.100;2023-05-29T03:01:17;9.80;99.90
55642;DHT22;41509;53.108;6.100;2023-05-29T03:03:43;9.90;99.90
55642;DHT22;41509;53.108;6.100;2023-05-29T03:06:08;9.90;99.90
55642;DHT22;41509;53.108;6.100;2023-05-29T03:08:35;10.00;99.90
55642;DHT22;41509;53.108;6.100;2023-05-29T03:11:07;10.00;99.90
55642;DHT22;41509;53.108;6.100;2023-05-29T03:13:33;10.00;99.90
55642;DHT22;41509;53.108;6.100;2023-05-29T03:16:00;10.10;99.90
55642;DHT22;41509;53.108;6.100;2023-05-29T03:18:25;10.10;99.90
55642;DHT22;41509;53.108;6.100;2023-05-29T03:20:51;10.20;99.90
55642;DHT22;41509;53.108;6.100;2023-05-29T03:23:16;10.20;99.90
55642;DHT22;41509;53.108;6.100;2023-05-29T03:25:42;10.20;99.90
55642;DHT22;41509;53.108;6.100;2023-05-29T03:28:08;10.20;99.90
55642;DHT22;41509;53.108;6.100;2023-05-29T03:30:33;10.20;99.90
55642;DHT22;41509;53.108;6.100;2023-05-29T03:32:59;10.20;99.90
55642;DHT22;41509;53.108;6.100;2023-05-29T03:35:29;10.30;99.90
55642;DHT22;41509;53.108;6.100;2023-05-29T03:37:55;10.30;99.90
55642;DHT22;41509;53.108;6.100;2023-05-29T03:40:21;10.30;99.90
55642;DHT22;41509;53.108;6.100;2023-05-29T03:42:46;10.30;99.90
55642;DHT22;41509;53.108;6.100;2023-05-29T03:45:12;10.40;99.90
55642;DHT22;41509;53.108;6.100;2023-05-29T03:47:37;10.40;99.90
55642;DHT22;41509;53.108;6.100;2023-05-29T03:50:03;10.40;99.90
55642;DHT22;41509;53.108;6.100;2023-05-29T03:52:29;10.40;99.90
55642;DHT22;41509;53.108;6.100;2023-05-29T03:54:55;10.40;99.90
55642;DHT22;41509;53.108;6.100;2023-05-29T03:57:23;10.40;99.90
55642;DHT22;41509;53.108;6.100;2023-05-29T03:59:48;10.40;99.90
55642;DHT22;41509;53.108;6.100;2023-05-29T04:02:14;10.50;99.90
55642;DHT22;41509;53.108;6.100;2023-05-29T04:04:39;10.50;99.90
55642;DHT22;41509;53.108;6.100;2023-05-29T04:07:05;10.40;99.90
55642;DHT22;41509;53.108;6.100;2023-05-29T04:09:33;10.50;99.90
55642;DHT22;41509;53.108;6.100;2023-05-29T04:11:59;10.50;99.90
55642;DHT22;41509;53.108;6.100;2023-05-29T04:14:27;10.50;99.90
55642;DHT22;41509;53.108;6.100;2023-05-29T04:16:53;10.50;99.90
55642;DHT22;41509;53.108;6.100;2023-05-29T04:19:19;10.50;99.90
55642;DHT22;41509;53.108;6.100;2023-05-29T04:21:46;10.50;99.90
55642;DHT22;41509;53.108;6.100;2023-05-29T04:24:15;10.60;99.90
55642;DHT22;41509;53.108;6.100;2023-05-29T04:26:41;10.50;99.90
55642;DHT22;41509;53.108;6.100;2023-05-29T04:29:11;10.60;99.90
55642;DHT22;41509;53.108;6.100;2023-05-29T04:31:38;10.60;99.90
55642;DHT22;41509;53.108;6.100;2023-05-29T04:34:04;10.70;99.90
55642;DHT22;41509;53.108;6.100;2023-05-29T04:36:30;10.70;99.90
55642;DHT22;41509;53.108;6.100;2023-05-29T04:38:58;10.70;99.90
55642;DHT22;41509;53.108;6.100;2023-05-29T04:41:24;10.80;99.90
55642;DHT22;41509;53.108;6.100;2023-05-29T04:43:55;10.80;99.90
55642;DHT22;41509;53.108;6.100;2023-05-29T04:46:25;10.80;99.90
55642;DHT22;41509;53.108;6.100;2023-05-29T04:48:51;10.80;99.90
55642;DHT22;41509;53.108;6.100;2023-05-29T04:51:22;10.80;99.90
55642;DHT22;41509;53.108;6.100;2023-05-29T04:53:49;10.90;99.90
55642;DHT22;41509;53.108;6.100;2023-05-29T04:56:17;10.90;99.90
55642;DHT22;41509;53.108;6.100;2023-05-29T04:58:43;10.90;99.90
55642;DHT22;41509;53.108;6.100;2023-05-29T05:01:09;11.00;99.90
55642;DHT22;41509;53.108;6.100;2023-05-29T05:03:40;11.00;99.90
55642;DHT22;41509;53.108;6.100;2023-05-29T05:06:06;11.00;99.90
55642;DHT22;41509;53.108;6.100;2023-05-29T05:08:33;11.10;99.90
55642;DHT22;41509;53.108;6.100;2023-05-29T05:11:02;11.10;99.90
55642;DHT22;41509;53.108;6.100;2023-05-29T05:13:28;11.10;99.90
55642;DHT22;41509;53.108;6.100;2023-05-29T05:15:56;11.10;99.90
55642;DHT22;41509;53.108;6.100;2023-05-29T05:18:22;11.20;99.90
55642;DHT22;41509;53.108;6.100;2023-05-29T05:20:47;11.20;99.90
55642;DHT22;41509;53.108;6.100;2023-05-29T05:23:13;11.30;99.90
55642;DHT22;41509;53.108;6.100;2023-05-29T05:25:41;11.30;99.90
55642;DHT22;41509;53.108;6.100;2023-05-29T05:28:08;11.40;99.90
55642;DHT22;41509;53.108;6.100;2023-05-29T05:30:34;11.40;99.90
55642;DHT22;41509;53.108;6.100;2023-05-29T05:32:59;11.40;99.90
55642;DHT22;41509;53.108;6.100;2023-05-29T05:35:28;11.50;99.90
55642;DHT22;41509;53.108;6.100;2023-05-29T05:37:53;11.50;99.90
55642;DHT22;41509;53.108;6.100;2023-05-29T05:40:19;11.60;99.90
55642;DHT22;41509;53.108;6.100;2023-05-29T05:42:44;11.60;99.90
55642;DHT22;41509;53.108;6.100;2023-05-29T05:45:12;11.60;99.90
55642;DHT22;41509;53.108;6.100;2023-05-29T05:47:38;11.70;99.90
55642;DHT22;41509;53.108;6.100;2023-05-29T05:50:04;11.70;99.90
55642;DHT22;41509;53.108;6.100;2023-05-29T05:52:30;11.80;99.90
55642;DHT22;41509;53.108;6.100;2023-05-29T05:54:57;11.80;99.90
55642;DHT22;41509;53.108;6.100;2023-05-29T05:57:23;11.80;99.90
55642;DHT22;41509;53.108;6.100;2023-05-29T05:59:49;11.90;99.90
55642;DHT22;41509;53.108;6.100;2023-05-29T06:02:14;12.00;99.90
55642;DHT22;41509;53.108;6.100;2023-05-29T06:04:40;12.00;99.90
55642;DHT22;41509;53.108;6.100;2023-05-29T06:07:06;12.00;99.90
55642;DHT22;41509;53.108;6.100;2023-05-29T06:09:32;12.00;99.90
55642;DHT22;41509;53.108;6.100;2023-05-29T06:11:58;12.00;99.90
55642;DHT22;41509;53.108;6.100;2023-05-29T06:14:24;12.00;99.90
55642;DHT22;41509;53.108;6.100;2023-05-29T06:16:50;12.10;99.90
55642;DHT22;41509;53.108;6.100;2023-05-29T06:19:19;12.10;99.90
55642;DHT22;41509;53.108;6.100;2023-05-29T06:21:44;12.10;99.90
55642;DHT22;41509;53.108;6.100;2023-05-29T06:24:12;12.20;99.90
55642;DHT22;41509;53.108;6.100;2023-05-29T06:26:39;12.30;99.90
55642;DHT22;41509;53.108;6.100;2023-05-29T06:29:07;12.30;99.90
55642;DHT22;41509;53.108;6.100;2023-05-29T06:31:33;12.40;99.90
55642;DHT22;41509;53.108;6.100;2023-05-29T06:33:59;12.40;99.90
55642;DHT22;41509;53.108;6.100;2023-05-29T06:36:25;12.50;99.90
55642;DHT22;41509;53.108;6.100;2023-05-29T06:38:51;12.50;99.90
55642;DHT22;41509;53.108;6.100;2023-05-29T06:41:17;12.60;99.90
55642;DHT22;41509;53.108;6.100;2023-05-29T06:43:43;12.60;99.90
55642;DHT22;41509;53.108;6.100;2023-05-29T06:46:09;12.50;99.90
55642;DHT22;41509;53.108;6.100;2023-05-29T06:48:35;12.60;99.90
55642;DHT22;41509;53.108;6.100;2023-05-29T06:51:02;12.60;99.90
55642;DHT22;41509;53.108;6.100;2023-05-29T06:53:35;12.60;99.90
55642;DHT22;41509;53.108;6.100;2023-05-29T06:56:07;12.70;99.90
55642;DHT22;41509;53.108;6.100;2023-05-29T06:58:33;12.70;99.90
55642;DHT22;41509;53.108;6.100;2023-05-29T07:00:59;12.70;99.90
55642;DHT22;41509;53.108;6.100;2023-05-29T07:03:26;12.80;99.90
55642;DHT22;41509;53.108;6.100;2023-05-29T07:05:52;12.90;99.90
55642;DHT22;41509;53.108;6.100;2023-05-29T07:08:17;12.90;99.90
55642;DHT22;41509;53.108;6.100;2023-05-29T07:10:43;12.90;99.90
55642;DHT22;41509;53.108;6.100;2023-05-29T07:13:09;12.90;99.90
55642;DHT22;41509;53.108;6.100;2023-05-29T07:15:34;12.90;99.90
55642;DHT22;41509;53.108;6.100;2023-05-29T07:18:00;12.90;99.90
55642;DHT22;41509;53.108;6.100;2023-05-29T07:20:26;12.90;99.90
55642;DHT22;41509;53.108;6.100;2023-05-29T07:22:51;12.90;99.90
55642;DHT22;41509;53.108;6.100;2023-05-29T07:25:17;12.90;99.90
55642;DHT22;41509;53.108;6.100;2023-05-29T07:27:43;12.90;99.90
55642;DHT22;41509;53.108;6.100;2023-05-29T07:30:09;13.00;99.90
55642;DHT22;41509;53.108;6.100;2023-05-29T07:32:35;13.10;99.90
55642;DHT22;41509;53.108;6.100;2023-05-29T07:35:01;13.10;99.90
55642;DHT22;41509;53.108;6.100;2023-05-29T07:37:26;13.20;99.90
55642;DHT22;41509;53.108;6.100;2023-05-29T07:39:52;13.20;99.90
55642;DHT22;41509;53.108;6.100;2023-05-29T07:42:17;13.30;99.90
55642;DHT22;41509;53.108;6.100;2023-05-29T07:44:44;13.30;99.90
55642;DHT22;41509;53.108;6.100;2023-05-29T07:47:09;13.40;99.90
55642;DHT22;41509;53.108;6.100;2023-05-29T07:49:35;13.40;99.90
55642;DHT22;41509;53.108;6.100;2023-05-29T07:52:02;13.40;99.90
55642;DHT22;41509;53.108;6.100;2023-05-29T07:54:28;13.40;99.90
55642;DHT22;41509;53.108;6.100;2023-05-29T07:56:53;13.40;99.90
55642;DHT22;41509;53.108;6.100;2023-05-29T07:59:20;13.30;99.90
55642;DHT22;41509;53.108;6.100;2023-05-29T08:01:46;13.40;99.90
55642;DHT22;41509;53.108;6.100;2023-05-29T08:04:12;13.40;99.90
55642;DHT22;41509;53.108;6.100;2023-05-29T08:06:39;13.50;99.90
55642;DHT22;41509;53.108;6.100;2023-05-29T08:09:07;13.70;99.90
55642;DHT22;41509;53.108;6.100;2023-05-29T08:11:33;13.60;99.90
55642;DHT22;41509;53.108;6.100;2023-05-29T08:13:59;13.80;99.90
55642;DHT22;41509;53.108;6.100;2023-05-29T08:16:25;13.90;99.90
55642;DHT22;41509;53.108;6.100;2023-05-29T08:18:52;14.00;99.90
55642;DHT22;41509;53.108;6.100;2023-05-29T08:21:18;14.00;99.90
55642;DHT22;41509;53.108;6.100;2023-05-29T08:23:44;14.10;99.90
55642;DHT22;41509;53.108;6.100;2023-05-29T08:26:10;14.20;99.90
55642;DHT22;41509;53.108;6.100;2023-05-29T08:28:35;14.20;99.90
55642;DHT22;41509;53.108;6.100;2023-05-29T08:31:01;14.20;99.90
55642;DHT22;41509;53.108;6.100;2023-05-29T08:33:27;14.20;99.90
55642;DHT22;41509;53.108;6.100;2023-05-29T08:35:52;14.20;99.90
55642;DHT22;41509;53.108;6.100;2023-05-29T08:38:18;14.20;99.90
55642;DHT22;41509;53.108;6.100;2023-05-29T08:40:47;14.20;99.90
55642;DHT22;41509;53.108;6.100;2023-05-29T08:43:16;14.20;99.90
55642;DHT22;41509;53.108;6.100;2023-05-29T08:45:43;14.30;99.90
55642;DHT22;41509;53.108;6.100;2023-05-29T08:48:10;14.30;99.90
55642;DHT22;41509;53.108;6.100;2023-05-29T08:50:43;14.40;99.90
55642;DHT22;41509;53.108;6.100;2023-05-29T08:53:10;14.40;99.90
55642;DHT22;41509;53.108;6.100;2023-05-29T08:55:35;14.40;99.90
55642;DHT22;41509;53.108;6.100;2023-05-29T08:58:01;14.50;99.90
55642;DHT22;41509;53.108;6.100;2023-05-29T09:00:28;14.50;99.90
55642;DHT22;41509;53.108;6.100;2023-05-29T09:02:55;14.50;99.90
55642;DHT22;41509;53.108;6.100;2023-05-29T09:05:25;14.50;99.90
55642;DHT22;41509;53.108;6.100;2023-05-29T09:07:56;14.50;99.90
55642;DHT22;41509;53.108;6.100;2023-05-29T09:10:22;14.40;99.90
55642;DHT22;41509;53.108;6.100;2023-05-29T09:12:48;14.30;99.90
55642;DHT22;41509;53.108;6.100;2023-05-29T09:15:18;14.30;99.90
55642;DHT22;41509;53.108;6.100;2023-05-29T09:17:54;14.30;99.90
55642;DHT22;41509;53.108;6.100;2023-05-29T09:20:21;14.20;99.90
55642;DHT22;41509;53.108;6.100;2023-05-29T09:22:57;14.20;99.90
55642;DHT22;41509;53.108;6.100;2023-05-29T09:25:24;14.30;99.90
55642;DHT22;41509;53.108;6.100;2023-05-29T09:28:02;14.20;99.90
55642;DHT22;41509;53.108;6.100;2023-05-29T09:33:02;14.20;99.90
55642;DHT22;41509;53.108;6.100;2023-05-29T09:35:39;14.10;99.90
55642;DHT22;41509;53.108;6.100;2023-05-29T09:38:12;14.20;99.90
55642;DHT22;41509;53.108;6.100;2023-05-29T09:40:39;14.20;99.90
55642;DHT22;41509;53.108;6.100;2023-05-29T09:43:15;14.30;99.90
55642;DHT22;41509;53.108;6.100;2023-05-29T09:45:49;14.40;99.90
55642;DHT22;41509;53.108;6.100;2023-05-29T09:48:18;14.60;99.90
55642;DHT22;41509;53.108;6.100;2023-05-29T09:50:45;14.70;99.90
55642;DHT22;41509;53.108;6.100;2023-05-29T09:53:20;14.80;99.90
55642;DHT22;41509;53.108;6.100;2023-05-29T09:55:48;14.80;99.90
55642;DHT22;41509;53.108;6.100;2023-05-29T09:58:21;14.80;99.90
55642;DHT22;41509;53.108;6.100;2023-05-29T10:00:48;14.90;99.90
55642;DHT22;41509;53.108;6.100;2023-05-29T10:03:15;15.00;99.90
55642;DHT22;41509;53.108;6.100;2023-05-29T10:05:42;15.10;99.90
55642;DHT22;41509;53.108;6.100;2023-05-29T10:08:12;15.10;99.90
55642;DHT22;41509;53.108;6.100;2023-05-29T10:10:41;15.10;99.90
55642;DHT22;41509;53.108;6.100;2023-05-29T10:13:10;15.30;99.90
55642;DHT22;41509;53.108;6.100;2023-05-29T10:15:37;15.40;99.90
55642;DHT22;41509;53.108;6.100;2023-05-29T10:18:14;15.60;99.90
55642;DHT22;41509;53.108;6.100;2023-05-29T10:20:43;15.70;99.90
55642;DHT22;41509;53.108;6.100;2023-05-29T10:23:10;15.90;99.90
55642;DHT22;41509;53.108;6.100;2023-05-29T10:25:37;16.00;99.90
55642;DHT22;41509;53.108;6.100;2023-05-29T10:28:04;16.10;99.90
55642;DHT22;41509;53.108;6.100;2023-05-29T10:31:24;16.20;99.90
55642;DHT22;41509;53.108;6.100;2023-05-29T10:36:42;16.10;99.90
55642;DHT22;41509;53.108;6.100;2023-05-29T10:39:09;16.10;99.90
55642;DHT22;41509;53.108;6.100;2023-05-29T10:41:35;16.10;99.90
55642;DHT22;41509;53.108;6.100;2023-05-29T10:49:25;16.00;99.90
55642;DHT22;41509;53.108;6.100;2023-05-29T10:51:51;16.20;99.90
55642;DHT22;41509;53.108;6.100;2023-05-29T10:54:21;16.20;99.90
55642;DHT22;41509;53.108;6.100;2023-05-29T10:56:58;16.30;99.90
55642;DHT22;41509;53.108;6.100;2023-05-29T10:59:26;16.20;99.90
55642;DHT22;41509;53.108;6.100;2023-05-29T11:01:54;16.30;99.90
55642;DHT22;41509;53.108;6.100;2023-05-29T11:06:46;16.50;99.90
55642;DHT22;41509;53.108;6.100;2023-05-29T11:12:10;16.70;99.90
55642;DHT22;41509;53.108;6.100;2023-05-29T11:14:46;16.70;99.90
55642;DHT22;41509;53.108;6.100;2023-05-29T11:17:51;16.90;99.90
55642;DHT22;41509;53.108;6.100;2023-05-29T11:20:36;17.10;99.90
55642;DHT22;41509;53.108;6.100;2023-05-29T11:23:04;17.10;99.90
55642;DHT22;41509;53.108;6.100;2023-05-29T11:25:34;17.20;99.90
55642;DHT22;41509;53.108;6.100;2023-05-29T11:28:01;17.30;99.90
55642;DHT22;41509;53.108;6.100;2023-05-29T11:30:29;17.30;99.90
55642;DHT22;41509;53.108;6.100;2023-05-29T11:32:55;17.40;99.90
55642;DHT22;41509;53.108;6.100;2023-05-29T11:35:26;17.50;99.90
55642;DHT22;41509;53.108;6.100;2023-05-29T11:37:52;17.50;99.90
55642;DHT22;41509;53.108;6.100;2023-05-29T11:40:19;17.50;99.90
55642;DHT22;41509;53.108;6.100;2023-05-29T11:42:46;17.50;99.90
55642;DHT22;41509;53.108;6.100;2023-05-29T11:45:15;17.60;99.90
55642;DHT22;41509;53.108;6.100;2023-05-29T11:48:01;17.80;99.90
55642;DHT22;41509;53.108;6.100;2023-05-29T11:50:31;17.90;99.90
55642;DHT22;41509;53.108;6.100;2023-05-29T11:52:58;17.80;99.90
55642;DHT22;41509;53.108;6.100;2023-05-29T11:55:25;17.90;99.90
55642;DHT22;41509;53.108;6.100;2023-05-29T11:57:59;17.90;99.90
55642;DHT22;41509;53.108;6.100;2023-05-29T12:00:26;17.90;99.90
55642;DHT22;41509;53.108;6.100;2023-05-29T12:02:51;18.00;99.90
55642;DHT22;41509;53.108;6.100;2023-05-29T12:05:18;18.00;99.90
55642;DHT22;41509;53.108;6.100;2023-05-29T12:07:56;17.90;99.00
55642;DHT22;41509;53.108;6.100;2023-05-29T12:10:24;17.80;98.50
55642;DHT22;41509;53.108;6.100;2023-05-29T12:12:58;17.90;99.00
55642;DHT22;41509;53.108;6.100;2023-05-29T12:15:24;17.90;99.40
55642;DHT22;41509;53.108;6.100;2023-05-29T12:17:51;18.00;99.30
55642;DHT22;41509;53.108;6.100;2023-05-29T12:20:18;18.00;98.90
55642;DHT22;41509;53.108;6.100;2023-05-29T12:22:45;18.10;97.90
55642;DHT22;41509;53.108;6.100;2023-05-29T12:25:15;18.10;97.90
55642;DHT22;41509;53.108;6.100;2023-05-29T12:27:43;18.10;98.10
55642;DHT22;41509;53.108;6.100;2023-05-29T12:30:20;18.10;97.20
55642;DHT22;41509;53.108;6.100;2023-05-29T12:32:47;18.00;97.20
55642;DHT22;41509;53.108;6.100;2023-05-29T12:35:15;18.00;97.50
55642;DHT22;41509;53.108;6.100;2023-05-29T12:37:48;18.00;97.40
55642;DHT22;41509;53.108;6.100;2023-05-29T12:40:22;18.10;97.20
55642;DHT22;41509;53.108;6.100;2023-05-29T12:42:53;18.20;96.80
55642;DHT22;41509;53.108;6.100;2023-05-29T12:45:19;18.20;97.00
55642;DHT22;41509;53.108;6.100;2023-05-29T12:48:06;18.30;95.50
55642;DHT22;41509;53.108;6.100;2023-05-29T12:50:37;18.30;95.10
55642;DHT22;41509;53.108;6.100;2023-05-29T12:53:08;18.30;95.10
55642;DHT22;41509;53.108;6.100;2023-05-29T12:55:38;18.40;95.30
55642;DHT22;41509;53.108;6.100;2023-05-29T12:58:06;18.50;95.10
55642;DHT22;41509;53.108;6.100;2023-05-29T13:00:35;18.60;94.40
55642;DHT22;41509;53.108;6.100;2023-05-29T13:03:01;18.50;93.30
55642;DHT22;41509;53.108;6.100;2023-05-29T13:05:28;18.60;94.50
55642;DHT22;41509;53.108;6.100;2023-05-29T13:07:53;18.70;94.10
55642;DHT22;41509;53.108;6.100;2023-05-29T13:10:23;18.90;94.20
55642;DHT22;41509;53.108;6.100;2023-05-29T13:12:50;19.10;94.80
55642;DHT22;41509;53.108;6.100;2023-05-29T13:15:19;19.10;93.80
55642;DHT22;41509;53.108;6.100;2023-05-29T13:17:45;18.90;92.20
55642;DHT22;41509;53.108;6.100;2023-05-29T13:20:12;18.80;91.50
55642;DHT22;41509;53.108;6.100;2023-05-29T13:22:43;18.70;91.50
55642;DHT22;41509;53.108;6.100;2023-05-29T13:25:11;18.50;91.70
55642;DHT22;41509;53.108;6.100;2023-05-29T13:27:38;18.40;91.70
55642;DHT22;41509;53.108;6.100;2023-05-29T13:30:05;18.30;90.90
55642;DHT22;41509;53.108;6.100;2023-05-29T13:32:31;18.30;91.40
55642;DHT22;41509;53.108;6.100;2023-05-29T13:34:57;18.30;91.40
55642;DHT22;41509;53.108;6.100;2023-05-29T13:37:23;18.30;91.20
55642;DHT22;41509;53.108;6.100;2023-05-29T13:39:49;18.50;90.90
55642;DHT22;41509;53.108;6.100;2023-05-29T13:42:16;18.50;91.00
55642;DHT22;41509;53.108;6.100;2023-05-29T13:44:42;18.60;91.40
55642;DHT22;41509;53.108;6.100;2023-05-29T13:47:08;18.80;91.80
55642;DHT22;41509;53.108;6.100;2023-05-29T13:49:34;18.90;91.40
55642;DHT22;41509;53.108;6.100;2023-05-29T13:52:00;18.90;91.00
55642;DHT22;41509;53.108;6.100;2023-05-29T13:54:26;18.90;90.30
55642;DHT22;41509;53.108;6.100;2023-05-29T13:56:55;19.00;90.10
55642;DHT22;41509;53.108;6.100;2023-05-29T13:59:21;19.00;90.10
55642;DHT22;41509;53.108;6.100;2023-05-29T14:01:47;19.00;90.10
55642;DHT22;41509;53.108;6.100;2023-05-29T14:04:13;19.00;88.70
55642;DHT22;41509;53.108;6.100;2023-05-29T14:06:38;19.00;88.70
55642;DHT22;41509;53.108;6.100;2023-05-29T14:09:04;18.90;89.40
55642;DHT22;41509;53.108;6.100;2023-05-29T14:11:33;18.90;90.00
55642;DHT22;41509;53.108;6.100;2023-05-29T14:14:00;19.00;89.30
55642;DHT22;41509;53.108;6.100;2023-05-29T14:16:29;18.90;87.60
55642;DHT22;41509;53.108;6.100;2023-05-29T14:18:59;19.00;86.20
55642;DHT22;41509;53.108;6.100;2023-05-29T14:21:25;19.00;85.80
55642;DHT22;41509;53.108;6.100;2023-05-29T14:23:51;19.10;85.00
55642;DHT22;41509;53.108;6.100;2023-05-29T14:26:16;19.10;85.70
55642;DHT22;41509;53.108;6.100;2023-05-29T14:28:43;19.10;86.50
55642;DHT22;41509;53.108;6.100;2023-05-29T14:31:09;19.10;86.60
55642;DHT22;41509;53.108;6.100;2023-05-29T14:33:34;19.30;85.80
55642;DHT22;41509;53.108;6.100;2023-05-29T14:36:02;19.10;84.30
55642;DHT22;41509;53.108;6.100;2023-05-29T14:38:28;19.20;83.70
55642;DHT22;41509;53.108;6.100;2023-05-29T14:40:53;19.20;82.10
55642;DHT22;41509;53.108;6.100;2023-05-29T14:43:19;19.00;82.10
55642;DHT22;41509;53.108;6.100;2023-05-29T14:45:45;19.00;79.00
55642;DHT22;41509;53.108;6.100;2023-05-29T14:48:10;19.00;78.30
55642;DHT22;41509;53.108;6.100;2023-05-29T14:50:36;18.90;77.50
55642;DHT22;41509;53.108;6.100;2023-05-29T14:53:02;18.90;79.60
55642;DHT22;41509;53.108;6.100;2023-05-29T14:55:30;19.00;79.80
55642;DHT22;41509;53.108;6.100;2023-05-29T14:58:03;19.00;77.70
55642;DHT22;41509;53.108;6.100;2023-05-29T15:00:29;19.00;76.80
55642;DHT22;41509;53.108;6.100;2023-05-29T15:02:55;19.00;76.60
55642;DHT22;41509;53.108;6.100;2023-05-29T15:05:27;19.10;77.10
55642;DHT22;41509;53.108;6.100;2023-05-29T15:07:55;19.20;75.70
55642;DHT22;41509;53.108;6.100;2023-05-29T15:10:23;19.20;75.00
55642;DHT22;41509;53.108;6.100;2023-05-29T15:12:51;19.20;74.20
55642;DHT22;41509;53.108;6.100;2023-05-29T15:15:24;19.20;73.40
55642;DHT22;41509;53.108;6.100;2023-05-29T15:17:50;19.20;72.60
55642;DHT22;41509;53.108;6.100;2023-05-29T15:20:19;19.20;73.00
55642;DHT22;41509;53.108;6.100;2023-05-29T15:22:48;19.10;73.10
55642;DHT22;41509;53.108;6.100;2023-05-29T15:25:15;19.20;74.10
55642;DHT22;41509;53.108;6.100;2023-05-29T15:27:42;19.20;75.30
55642;DHT22;41509;53.108;6.100;2023-05-29T15:30:12;19.30;74.70
55642;DHT22;41509;53.108;6.100;2023-05-29T15:32:39;19.20;74.40
55642;DHT22;41509;53.108;6.100;2023-05-29T15:35:10;19.20;75.00
55642;DHT22;41509;53.108;6.100;2023-05-29T15:37:36;19.20;76.20
55642;DHT22;41509;53.108;6.100;2023-05-29T15:40:02;19.20;76.30
55642;DHT22;41509;53.108;6.100;2023-05-29T15:42:28;19.30;76.00
55642;DHT22;41509;53.108;6.100;2023-05-29T15:44:54;19.40;76.20
55642;DHT22;41509;53.108;6.100;2023-05-29T15:47:20;19.30;76.40
55642;DHT22;41509;53.108;6.100;2023-05-29T15:49:45;19.30;77.60
55642;DHT22;41509;53.108;6.100;2023-05-29T15:52:12;19.30;78.20
55642;DHT22;41509;53.108;6.100;2023-05-29T15:54:38;19.40;77.60
55642;DHT22;41509;53.108;6.100;2023-05-29T15:57:04;19.40;78.00
55642;DHT22;41509;53.108;6.100;2023-05-29T15:59:32;19.50;76.50
55642;DHT22;41509;53.108;6.100;2023-05-29T16:01:58;19.60;77.80